createdAt,value
2018-02-24T11:51:24.329Z,3.50
2018-02-24T11:53:51.780Z,3.30
2018-02-24T11:56:19.212Z,3.10
2018-02-24T11:58:46.662Z,3.63
2018-02-24T12:01:14.118Z,3.60
2018-02-24T12:03:41.570Z,2.97
2018-02-24T12:06:09.023Z,3.00
2018-02-24T12:08:36.464Z,2.70
2018-02-24T12:11:04.699Z,3.10
2018-02-24T12:13:32.133Z,3.00
2018-02-24T12:15:59.587Z,2.67
2018-02-24T12:18:27.033Z,2.77
2018-02-24T12:20:54.475Z,2.53
2018-02-24T12:23:21.917Z,2.93
2018-02-24T12:25:50.128Z,2.60
2018-02-24T12:28:17.583Z,3.07
2018-02-24T12:30:45.029Z,2.80
2018-02-24T12:33:12.470Z,3.03
2018-02-24T12:35:39.928Z,2.57
2018-02-24T12:38:07.379Z,2.97
2018-02-24T12:40:34.805Z,2.70
2018-02-24T12:43:03.039Z,2.50
2018-02-24T12:45:30.479Z,2.63
2018-02-24T12:47:57.940Z,2.63
2018-02-24T12:50:25.397Z,2.50
2018-02-24T12:52:52.872Z,3.07
2018-02-24T12:55:20.310Z,2.70
2018-02-24T12:57:47.759Z,2.77
2018-02-24T13:00:15.211Z,3.17
2018-02-24T13:02:43.435Z,3.20
2018-02-24T13:05:10.879Z,2.77
2018-02-24T13:07:38.348Z,2.90
2018-02-24T13:10:05.790Z,2.53
2018-02-24T13:12:33.236Z,2.50
2018-02-24T13:15:00.678Z,2.13
2018-02-24T13:17:28.118Z,2.40
2018-02-24T13:19:55.560Z,2.40
2018-02-24T13:22:22.990Z,2.20
2018-02-24T13:24:51.207Z,2.47
2018-02-24T13:27:18.661Z,3.23
2018-02-24T13:29:46.094Z,2.93
2018-02-24T13:32:13.551Z,2.57
2018-02-24T13:34:40.990Z,2.90
2018-02-24T13:37:09.221Z,2.60
2018-02-24T13:39:36.662Z,2.70
2018-02-24T13:42:04.106Z,2.63
2018-02-24T13:44:31.573Z,3.10
2018-02-24T13:46:59.019Z,2.57
2018-02-24T13:49:26.458Z,2.60
2018-02-24T13:51:53.920Z,2.40
2018-02-24T13:54:21.362Z,2.63
2018-02-24T13:56:49.565Z,2.80
2018-02-24T13:59:17.002Z,2.77
2018-02-24T14:01:44.449Z,2.60
2018-02-24T14:04:12.661Z,2.27
2018-02-24T14:06:40.123Z,2.40
2018-02-24T14:09:07.569Z,2.53
2018-02-24T14:11:35.018Z,2.40
2018-02-24T14:14:02.461Z,2.80
2018-02-24T14:16:29.919Z,2.90
2018-02-24T14:18:57.364Z,2.57
2018-02-24T14:21:25.570Z,2.30
2018-02-24T14:23:53.002Z,2.77
2018-02-24T14:26:20.442Z,2.50
2018-02-24T14:28:48.646Z,2.73
2018-02-24T14:31:16.098Z,3.40
2018-02-24T14:33:43.540Z,3.33
2018-02-24T14:36:10.973Z,3.47
2018-02-24T14:38:39.192Z,3.20
2018-02-24T14:41:06.642Z,3.33
2018-02-24T14:43:34.091Z,2.80
2018-02-24T14:46:01.521Z,3.10
2018-02-24T14:48:29.729Z,2.63
2018-02-24T14:50:57.179Z,2.30
2018-02-24T14:53:24.631Z,2.73
2018-02-24T14:55:52.074Z,2.30
2018-02-24T14:58:19.532Z,2.50
2018-02-24T15:00:46.965Z,2.43
2018-02-24T15:03:15.194Z,2.83
2018-02-24T15:05:42.643Z,2.37
2018-02-24T15:08:10.126Z,2.33
2018-02-24T15:10:37.592Z,2.63
2018-02-24T15:13:06.917Z,2.30
2018-02-24T15:15:35.121Z,2.50
2018-02-24T15:18:02.554Z,2.57
2018-02-24T15:20:32.757Z,2.70
2018-02-24T15:23:00.973Z,2.10
2018-02-24T15:25:28.430Z,2.33
2018-02-24T15:27:55.870Z,2.57
2018-02-24T15:30:23.319Z,2.67
2018-02-24T15:32:50.766Z,2.60
2018-02-24T15:35:18.985Z,2.30
2018-02-24T15:37:46.435Z,2.17
2018-02-24T15:40:13.888Z,2.30
2018-02-24T15:42:45.005Z,2.47
2018-02-24T15:45:12.456Z,2.20
2018-02-24T15:47:39.897Z,2.10
2018-02-24T15:50:08.097Z,2.20
2018-02-24T15:52:35.557Z,2.20
2018-02-24T15:55:04.044Z,2.20
2018-02-24T15:57:31.474Z,2.60
2018-02-24T16:00:03.547Z,2.20
2018-02-24T16:02:30.999Z,2.43
2018-02-24T16:04:58.454Z,2.70
2018-02-24T16:07:26.672Z,2.23
2018-02-24T16:09:54.125Z,2.10
2018-02-24T16:12:21.567Z,2.30
2018-02-24T16:14:49.772Z,2.13
2018-02-24T16:17:17.236Z,2.10
2018-02-24T16:19:44.686Z,2.10
2018-02-24T16:22:12.157Z,2.13
2018-02-24T16:24:39.579Z,1.80
2018-02-24T16:27:07.013Z,2.00
2018-02-24T16:29:34.457Z,2.17
2018-02-24T16:32:01.894Z,2.00
2018-02-24T16:34:30.104Z,2.27
2018-02-24T16:36:57.546Z,2.20
2018-02-24T16:39:24.999Z,2.10
2018-02-24T16:41:52.439Z,1.90
2018-02-24T16:44:20.673Z,1.93
2018-02-24T16:46:48.691Z,1.90
2018-02-24T16:49:16.144Z,1.80
2018-02-24T16:51:43.599Z,2.03
2018-02-24T16:54:11.044Z,1.93
2018-02-24T16:56:39.252Z,1.97
2018-02-24T16:59:06.696Z,1.97
2018-02-24T17:01:34.147Z,1.70
2018-02-24T17:04:01.590Z,1.73
2018-02-24T17:06:29.798Z,2.27
2018-02-24T17:08:57.251Z,1.70
2018-02-24T17:11:24.698Z,1.90
2018-02-24T17:13:52.137Z,1.77
2018-02-24T17:16:19.595Z,1.93
2018-02-24T17:18:47.040Z,2.20
2018-02-24T17:21:15.251Z,1.67
2018-02-24T17:23:42.704Z,1.50
2018-02-24T17:26:10.158Z,1.83
2018-02-24T17:28:37.611Z,1.90
2018-02-24T17:31:05.045Z,1.70
2018-02-24T17:33:33.889Z,2.13
2018-02-24T17:36:01.418Z,1.83
2018-02-24T17:38:28.873Z,1.85
2018-02-24T17:40:56.321Z,1.80
2018-02-24T17:43:23.880Z,1.70
2018-02-24T17:45:51.309Z,1.60
2018-02-24T17:48:19.536Z,1.97
2018-02-24T17:50:46.978Z,1.53
2018-02-24T17:53:14.424Z,1.80
2018-02-24T17:55:41.882Z,1.80
2018-02-24T17:58:09.332Z,1.57
2018-02-24T18:00:36.765Z,1.70
2018-02-24T18:03:04.987Z,1.80
2018-02-24T18:05:32.450Z,1.47
2018-02-24T18:07:59.899Z,1.90
2018-02-24T18:10:27.351Z,1.60
2018-02-24T18:12:54.790Z,1.60
2018-02-24T18:15:22.236Z,1.63
2018-02-24T18:17:49.674Z,1.67
2018-02-24T18:20:17.902Z,1.70
2018-02-24T18:22:45.347Z,1.77
2018-02-24T18:25:12.785Z,1.90
2018-02-24T18:27:40.234Z,1.40
2018-02-24T18:30:07.681Z,1.70
2018-02-24T18:32:35.149Z,1.60
2018-02-24T18:35:02.579Z,1.87
2018-02-24T18:37:30.795Z,1.80
2018-02-24T18:39:58.237Z,1.60
2018-02-24T18:42:25.678Z,1.60
2018-02-24T18:44:53.132Z,1.70
2018-02-24T18:47:20.606Z,1.77
2018-02-24T18:49:48.953Z,2.10
2018-02-24T18:52:17.172Z,2.00
2018-02-24T18:54:44.618Z,2.27
2018-02-24T18:57:12.071Z,2.63
2018-02-24T18:59:39.522Z,2.10
2018-02-24T19:02:07.973Z,2.50
2018-02-24T19:04:36.190Z,2.60
2018-02-24T19:07:04.626Z,3.40
2018-02-24T19:09:32.862Z,3.63
2018-02-24T19:12:00.322Z,4.30
2018-02-24T19:14:27.835Z,4.60
2018-02-24T19:16:55.233Z,5.73
2018-02-24T19:19:22.670Z,5.10
2018-02-24T19:21:50.127Z,5.07
2018-02-24T19:24:17.576Z,6.00
2018-02-24T19:26:45.022Z,5.43
2018-02-24T19:29:12.474Z,5.50
2018-02-24T19:31:39.930Z,4.43
2018-02-24T19:34:07.375Z,5.23
2018-02-24T19:36:34.831Z,5.20
2018-02-24T19:39:02.281Z,5.20
2018-02-24T19:41:29.736Z,4.80
2018-02-24T19:43:57.955Z,4.53
2018-02-24T19:46:25.401Z,4.90
2018-02-24T19:48:52.903Z,4.67
2018-02-24T19:51:20.349Z,3.80
2018-02-24T19:53:47.808Z,3.80
2018-02-24T19:56:15.267Z,3.57
2018-02-24T19:58:42.717Z,3.77
2018-02-24T20:01:10.175Z,3.90
2018-02-24T20:03:37.633Z,3.23
2018-02-24T20:06:05.094Z,2.73
2018-02-24T20:08:32.557Z,3.17
2018-02-24T20:11:00.773Z,2.90
2018-02-24T20:13:28.234Z,2.97
2018-02-24T20:15:55.697Z,2.50
2018-02-24T20:18:23.137Z,3.00
2018-02-24T20:20:50.577Z,2.50
2018-02-24T20:23:18.060Z,2.40
2018-02-24T20:25:45.507Z,2.70
2018-02-24T20:28:13.007Z,2.60
2018-02-24T20:30:40.455Z,2.37
2018-02-24T20:33:07.922Z,2.50
2018-02-24T20:35:35.362Z,2.60
2018-02-24T20:38:02.864Z,2.50
2018-02-24T20:40:30.279Z,2.03
2018-02-24T20:42:57.744Z,2.43
2018-02-24T20:45:25.183Z,2.10
2018-02-24T20:47:52.648Z,2.30
2018-02-24T20:50:20.095Z,1.87
2018-02-24T20:52:47.543Z,2.13
2018-02-24T20:55:15.079Z,2.23
2018-02-24T20:57:42.508Z,1.93
2018-02-24T21:00:10.734Z,1.70
2018-02-24T21:02:38.201Z,1.80
2018-02-24T21:05:05.647Z,2.00
2018-02-24T21:07:33.106Z,1.90
2018-02-24T21:10:00.566Z,1.80
2018-02-24T21:12:28.015Z,1.80
2018-02-24T21:14:55.457Z,1.90
2018-02-24T21:17:22.917Z,1.70
2018-02-24T21:19:50.375Z,1.90
2018-02-24T21:22:17.821Z,1.73
2018-02-24T21:24:45.371Z,2.00
2018-02-24T21:27:12.824Z,1.60
2018-02-24T21:29:40.278Z,1.57
2018-02-24T21:32:07.745Z,1.50
2018-02-24T21:34:35.210Z,1.70
2018-02-24T21:37:02.665Z,1.80
2018-02-24T21:39:30.128Z,1.80
2018-02-24T21:41:57.587Z,1.70
2018-02-24T21:44:25.045Z,1.70
2018-02-24T21:46:52.511Z,1.70
2018-02-24T21:49:19.967Z,1.60
2018-02-24T21:51:47.417Z,1.97
2018-02-24T21:54:14.886Z,1.47
2018-02-24T21:56:42.339Z,1.70
2018-02-24T21:59:09.831Z,1.90
2018-02-24T22:01:38.059Z,1.80
2018-02-24T22:04:05.505Z,1.70
2018-02-24T22:06:33.000Z,1.37
2018-02-24T22:09:00.457Z,1.50
2018-02-24T22:11:27.906Z,1.50
2018-02-24T22:13:55.349Z,1.70
2018-02-24T22:16:22.822Z,1.63
2018-02-24T22:18:50.279Z,1.80
2018-02-24T22:21:17.734Z,1.40
2018-02-24T22:23:45.178Z,1.80
2018-02-24T22:26:12.658Z,1.57
2018-02-24T22:28:40.883Z,1.70
2018-02-24T22:31:08.326Z,1.30
2018-02-24T22:33:35.783Z,1.50
2018-02-24T22:36:03.239Z,1.50
2018-02-24T22:38:30.698Z,1.53
2018-02-24T22:40:58.170Z,1.60
2018-02-24T22:43:25.606Z,1.60
2018-02-24T22:45:53.069Z,1.50
2018-02-24T22:48:26.314Z,1.50
2018-02-24T22:50:54.541Z,1.37
2018-02-24T22:53:22.003Z,1.43
2018-02-24T22:55:49.466Z,1.30
2018-02-24T22:58:16.914Z,1.57
2018-02-24T23:00:44.370Z,1.47
2018-02-24T23:03:11.831Z,1.73
2018-02-24T23:05:39.285Z,1.40
2018-02-24T23:08:06.736Z,1.60
2018-02-24T23:10:34.197Z,1.70
2018-02-24T23:13:01.657Z,1.80
2018-02-24T23:15:29.119Z,2.13
2018-02-24T23:17:56.573Z,2.53
2018-02-24T23:20:24.028Z,1.80
2018-02-24T23:22:52.190Z,2.17
2018-02-24T23:25:19.643Z,2.17
2018-02-24T23:27:47.084Z,1.90
2018-02-24T23:30:14.543Z,2.30
2018-02-24T23:32:42.003Z,2.00
2018-02-24T23:35:10.228Z,1.83
2018-02-24T23:37:37.686Z,2.10
2018-02-24T23:40:05.136Z,1.97
2018-02-24T23:42:32.599Z,1.80
2018-02-24T23:45:00.059Z,1.83
2018-02-24T23:47:28.279Z,1.70
2018-02-24T23:49:55.732Z,1.50
2018-02-24T23:52:23.199Z,1.53
2018-02-24T23:54:50.658Z,1.70
2018-02-24T23:57:18.126Z,1.60
2018-02-24T23:59:45.553Z,1.67
